Fritch, Texas
Current Conditions -  °F | °C
As of 1:51 PM on Wednesday 28 Jan 2015 (Local Time) from KBGD Reporting Station
Clear Clear  
Wind Chill: 71°   Ceiling: Unl
Heat Index: 71°   Visibility: 10mi
Dew Point: 31°   Wind: 15mph
Humidity: 23%   Direction: 10°N
Pressure: 29.98"   Gusts: 23mph
Location:  35.64°N, 101.6°W
Report Text: KBGD 281951Z AUTO 01013G20KT 10SM CLR 22/M01 A2998 RMK AO2 SLP126 T02171006
Loading
Personal Weather Stations






























Interactive Weather Map New forecast layout! Learn more

10-Day Weather Forecast

Advertisements
Track Severe Weather on mobile